sensor_id;sensor_type;location;lat;lon;timestamp;pressure;altitude;pressure_sealevel;temperature;humidity
73842;BME280;62184;52.006;5.924;2022-12-16T00:01:13;100234.84;;;-0.71;65.43
73842;BME280;62184;52.006;5.924;2022-12-16T00:03:45;100245.31;;;-0.71;65.61
73842;BME280;62184;52.006;5.924;2022-12-16T00:06:15;100249.75;;;-0.66;65.80
73842;BME280;62184;52.006;5.924;2022-12-16T00:08:42;100243.75;;;-0.54;65.91
73842;BME280;62184;52.006;5.924;2022-12-16T00:11:09;100244.75;;;-0.41;65.78
73842;BME280;62184;52.006;5.924;2022-12-16T00:13:36;100243.97;;;-0.33;65.54
73842;BME280;62184;52.006;5.924;2022-12-16T00:16:05;100238.81;;;-0.25;65.36
73842;BME280;62184;52.006;5.924;2022-12-16T00:18:33;100231.88;;;-0.18;65.47
73842;BME280;62184;52.006;5.924;2022-12-16T00:21:00;100244.19;;;-0.07;65.26
73842;BME280;62184;52.006;5.924;2022-12-16T00:23:30;100246.09;;;0.08;65.19
73842;BME280;62184;52.006;5.924;2022-12-16T00:25:57;100244.41;;;0.16;65.18
73842;BME280;62184;52.006;5.924;2022-12-16T00:28:23;100240.06;;;0.23;64.66
73842;BME280;62184;52.006;5.924;2022-12-16T00:30:52;100244.44;;;0.24;64.58
73842;BME280;62184;52.006;5.924;2022-12-16T00:33:20;100243.59;;;0.25;64.64
73842;BME280;62184;52.006;5.924;2022-12-16T00:35:49;100250.59;;;0.29;64.64
73842;BME280;62184;52.006;5.924;2022-12-16T00:38:15;100255.88;;;0.35;64.60
73842;BME280;62184;52.006;5.924;2022-12-16T00:40:44;100246.28;;;0.38;64.62
73842;BME280;62184;52.006;5.924;2022-12-16T00:43:11;100248.06;;;0.42;64.66
73842;BME280;62184;52.006;5.924;2022-12-16T00:45:38;100242.84;;;0.45;64.52
73842;BME280;62184;52.006;5.924;2022-12-16T00:48:05;100238.47;;;0.46;64.24
73842;BME280;62184;52.006;5.924;2022-12-16T00:50:33;100248.13;;;0.48;64.58
73842;BME280;62184;52.006;5.924;2022-12-16T00:53:00;100235.88;;;0.53;64.33
73842;BME280;62184;52.006;5.924;2022-12-16T00:55:26;100243.78;;;0.60;64.32
73842;BME280;62184;52.006;5.924;2022-12-16T00:57:55;100235.94;;;0.63;64.04
73842;BME280;62184;52.006;5.924;2022-12-16T01:00:22;100241.22;;;0.66;63.88
73842;BME280;62184;52.006;5.924;2022-12-16T01:02:50;100238.59;;;0.66;64.10
73842;BME280;62184;52.006;5.924;2022-12-16T01:05:19;100247.31;;;0.62;64.23
73842;BME280;62184;52.006;5.924;2022-12-16T01:07:47;100244.72;;;0.65;64.10
73842;BME280;62184;52.006;5.924;2022-12-16T01:10:14;100251.72;;;0.66;64.16
73842;BME280;62184;52.006;5.924;2022-12-16T01:12:40;100248.22;;;0.68;64.04
73842;BME280;62184;52.006;5.924;2022-12-16T01:15:10;100245.59;;;0.70;63.95
73842;BME280;62184;52.006;5.924;2022-12-16T01:17:37;100253.50;;;0.71;63.95
73842;BME280;62184;52.006;5.924;2022-12-16T01:20:05;100254.38;;;0.76;64.29
73842;BME280;62184;52.006;5.924;2022-12-16T01:22:32;100262.34;;;0.84;63.93
73842;BME280;62184;52.006;5.924;2022-12-16T01:25:00;100263.19;;;0.86;63.85
73842;BME280;62184;52.006;5.924;2022-12-16T01:27:27;100268.47;;;0.87;63.75
73842;BME280;62184;52.006;5.924;2022-12-16T01:29:54;100272.88;;;0.90;63.81
73842;BME280;62184;52.006;5.924;2022-12-16T01:32:23;100269.38;;;0.94;63.64
73842;BME280;62184;52.006;5.924;2022-12-16T01:34:50;100275.50;;;0.90;63.70
73842;BME280;62184;52.006;5.924;2022-12-16T01:37:18;100275.50;;;0.93;63.94
73842;BME280;62184;52.006;5.924;2022-12-16T01:39:45;100288.69;;;0.96;64.17
73842;BME280;62184;52.006;5.924;2022-12-16T01:42:13;100293.97;;;1.01;63.94
73842;BME280;62184;52.006;5.924;2022-12-16T01:44:42;100299.25;;;1.05;63.95
73842;BME280;62184;52.006;5.924;2022-12-16T01:47:15;100295.75;;;1.11;64.08
73842;BME280;62184;52.006;5.924;2022-12-16T01:49:49;100305.44;;;1.19;63.88
73842;BME280;62184;52.006;5.924;2022-12-16T01:52:24;100304.59;;;1.25;63.58
73842;BME280;62184;52.006;5.924;2022-12-16T01:54:59;100301.13;;;1.32;63.37
73842;BME280;62184;52.006;5.924;2022-12-16T01:57:32;100302.84;;;1.30;63.23
73842;BME280;62184;52.006;5.924;2022-12-16T02:00:04;100297.59;;;1.28;63.40
73842;BME280;62184;52.006;5.924;2022-12-16T02:02:31;100304.59;;;1.29;63.52
73842;BME280;62184;52.006;5.924;2022-12-16T02:05:00;100295.84;;;1.35;63.53
73842;BME280;62184;52.006;5.924;2022-12-16T02:07:27;100305.53;;;1.42;63.36
73842;BME280;62184;52.006;5.924;2022-12-16T02:09:55;100312.53;;;1.45;63.21
73842;BME280;62184;52.006;5.924;2022-12-16T02:12:28;100301.16;;;1.49;63.53
73842;BME280;62184;52.006;5.924;2022-12-16T02:15:16;100306.44;;;1.53;63.19
73842;BME280;62184;52.006;5.924;2022-12-16T02:17:57;100313.47;;;1.57;63.38
73842;BME280;62184;52.006;5.924;2022-12-16T02:24:39;100313.47;;;1.68;63.16
73842;BME280;62184;52.006;5.924;2022-12-16T02:30:46;100319.66;;;1.72;63.09
73842;BME280;62184;52.006;5.924;2022-12-16T02:33:34;100318.75;;;1.68;63.28
73842;BME280;62184;52.006;5.924;2022-12-16T02:36:21;100325.78;;;1.67;63.16
73842;BME280;62184;52.006;5.924;2022-12-16T02:39:07;100329.28;;;1.65;63.45
73842;BME280;62184;52.006;5.924;2022-12-16T02:41:42;100326.63;;;1.60;63.33
73842;BME280;62184;52.006;5.924;2022-12-16T02:44:16;100316.13;;;1.57;63.67
73842;BME280;62184;52.006;5.924;2022-12-16T02:46:54;100318.72;;;1.54;63.73
73842;BME280;62184;52.006;5.924;2022-12-16T02:49:46;100318.72;;;1.56;63.52
73842;BME280;62184;52.006;5.924;2022-12-16T02:52:17;100322.25;;;1.58;63.80
73842;BME280;62184;52.006;5.924;2022-12-16T02:54:47;100330.13;;;1.61;63.58
73842;BME280;62184;52.006;5.924;2022-12-16T02:57:45;100330.16;;;1.58;63.37
73842;BME280;62184;52.006;5.924;2022-12-16T03:00:23;100326.63;;;1.57;63.37
73842;BME280;62184;52.006;5.924;2022-12-16T03:02:59;100331.00;;;1.60;63.27
73842;BME280;62184;52.006;5.924;2022-12-16T03:05:33;100328.38;;;1.57;63.30
73842;BME280;62184;52.006;5.924;2022-12-16T03:08:08;100335.41;;;1.56;63.14
73842;BME280;62184;52.006;5.924;2022-12-16T03:10:42;100341.53;;;1.51;63.35
73842;BME280;62184;52.006;5.924;2022-12-16T03:13:12;100343.22;;;1.43;63.38
73842;BME280;62184;52.006;5.924;2022-12-16T03:15:43;100342.34;;;1.38;63.89
73842;BME280;62184;52.006;5.924;2022-12-16T03:18:15;100353.78;;;1.41;63.83
73842;BME280;62184;52.006;5.924;2022-12-16T03:20:47;100345.00;;;1.45;63.58
73842;BME280;62184;52.006;5.924;2022-12-16T03:23:24;100353.81;;;1.49;63.62
73842;BME280;62184;52.006;5.924;2022-12-16T03:25:57;100348.53;;;1.50;63.72
73842;BME280;62184;52.006;5.924;2022-12-16T03:28:37;100356.41;;;1.52;63.32
73842;BME280;62184;52.006;5.924;2022-12-16T03:31:16;100372.22;;;1.50;63.58
73842;BME280;62184;52.006;5.924;2022-12-16T03:33:58;100366.94;;;1.46;63.47
73842;BME280;62184;52.006;5.924;2022-12-16T03:36:33;100367.81;;;1.42;63.80
73842;BME280;62184;52.006;5.924;2022-12-16T03:39:04;100366.88;;;1.35;63.66
73842;BME280;62184;52.006;5.924;2022-12-16T03:41:33;100363.34;;;1.30;64.07
73842;BME280;62184;52.006;5.924;2022-12-16T03:44:01;100380.03;;;1.31;64.11
73842;BME280;62184;52.006;5.924;2022-12-16T03:46:28;100388.75;;;1.26;64.01
73842;BME280;62184;52.006;5.924;2022-12-16T03:48:57;100390.47;;;1.20;64.33
73842;BME280;62184;52.006;5.924;2022-12-16T03:51:24;100400.97;;;1.15;64.65
73842;BME280;62184;52.006;5.924;2022-12-16T03:53:50;100405.31;;;1.10;65.16
73842;BME280;62184;52.006;5.924;2022-12-16T03:56:17;100402.69;;;1.09;65.34
73842;BME280;62184;52.006;5.924;2022-12-16T03:58:43;100398.31;;;1.11;65.57
73842;BME280;62184;52.006;5.924;2022-12-16T04:01:10;100396.53;;;1.10;65.60
73842;BME280;62184;52.006;5.924;2022-12-16T04:03:37;100399.19;;;1.11;65.72
73842;BME280;62184;52.006;5.924;2022-12-16T04:06:06;100395.69;;;1.12;65.88
73842;BME280;62184;52.006;5.924;2022-12-16T04:08:33;100398.31;;;1.08;66.00
73842;BME280;62184;52.006;5.924;2022-12-16T04:11:00;100395.66;;;1.06;66.04
73842;BME280;62184;52.006;5.924;2022-12-16T04:13:26;100395.69;;;1.08;66.40
73842;BME280;62184;52.006;5.924;2022-12-16T04:15:53;100404.44;;;1.07;66.60
73842;BME280;62184;52.006;5.924;2022-12-16T04:18:19;100398.31;;;1.11;66.80
73842;BME280;62184;52.006;5.924;2022-12-16T04:20:48;100409.78;;;1.17;66.65
73842;BME280;62184;52.006;5.924;2022-12-16T04:23:20;100409.78;;;1.20;66.85
73842;BME280;62184;52.006;5.924;2022-12-16T04:25:49;100409.78;;;1.23;67.00
73842;BME280;62184;52.006;5.924;2022-12-16T04:28:16;100407.16;;;1.23;67.04
73842;BME280;62184;52.006;5.924;2022-12-16T04:30:42;100410.66;;;1.22;66.99
73842;BME280;62184;52.006;5.924;2022-12-16T04:33:11;100409.78;;;1.20;67.01
73842;BME280;62184;52.006;5.924;2022-12-16T04:35:39;100417.66;;;1.17;67.23
73842;BME280;62184;52.006;5.924;2022-12-16T04:38:06;100419.38;;;1.14;67.64
73842;BME280;62184;52.006;5.924;2022-12-16T04:40:35;100416.72;;;1.12;67.85
73842;BME280;62184;52.006;5.924;2022-12-16T04:43:02;100425.50;;;1.11;68.03
73842;BME280;62184;52.006;5.924;2022-12-16T04:45:28;100424.59;;;1.09;68.40
73842;BME280;62184;52.006;5.924;2022-12-16T04:47:55;100429.00;;;1.12;68.34
73842;BME280;62184;52.006;5.924;2022-12-16T04:50:22;100431.63;;;1.12;68.46
73842;BME280;62184;52.006;5.924;2022-12-16T04:52:49;100418.47;;;1.09;68.60
73842;BME280;62184;52.006;5.924;2022-12-16T04:55:16;100433.38;;;1.08;68.74
73842;BME280;62184;52.006;5.924;2022-12-16T04:57:46;100429.84;;;1.09;69.12
73842;BME280;62184;52.006;5.924;2022-12-16T05:00:14;100430.75;;;1.11;69.10
73842;BME280;62184;52.006;5.924;2022-12-16T05:02:40;100432.47;;;1.09;69.06
73842;BME280;62184;52.006;5.924;2022-12-16T05:05:07;100430.75;;;1.11;69.01
73842;BME280;62184;52.006;5.924;2022-12-16T05:07:33;100438.69;;;1.16;69.10
73842;BME280;62184;52.006;5.924;2022-12-16T05:10:00;100436.06;;;1.19;69.32
73842;BME280;62184;52.006;5.924;2022-12-16T05:12:26;100442.25;;;1.24;69.33
73842;BME280;62184;52.006;5.924;2022-12-16T05:14:55;100438.72;;;1.26;69.11
73842;BME280;62184;52.006;5.924;2022-12-16T05:17:22;100441.38;;;1.29;69.17
73842;BME280;62184;52.006;5.924;2022-12-16T05:19:49;100435.25;;;1.29;69.23
73842;BME280;62184;52.006;5.924;2022-12-16T05:22:15;100436.97;;;1.24;69.06
73842;BME280;62184;52.006;5.924;2022-12-16T05:24:42;100429.03;;;1.19;69.17
73842;BME280;62184;52.006;5.924;2022-12-16T05:27:08;100443.06;;;1.18;69.20
73842;BME280;62184;52.006;5.924;2022-12-16T05:29:35;100443.09;;;1.21;69.18
73842;BME280;62184;52.006;5.924;2022-12-16T05:32:04;100443.06;;;1.18;69.27
73842;BME280;62184;52.006;5.924;2022-12-16T05:34:30;100450.94;;;1.14;69.25
73842;BME280;62184;52.006;5.924;2022-12-16T05:36:56;100459.72;;;1.16;69.32
73842;BME280;62184;52.006;5.924;2022-12-16T05:39:23;100452.69;;;1.13;69.38
73842;BME280;62184;52.006;5.924;2022-12-16T05:41:50;100466.66;;;1.06;69.46
73842;BME280;62184;52.006;5.924;2022-12-16T05:44:16;100460.47;;;1.01;69.67
73842;BME280;62184;52.006;5.924;2022-12-16T05:46:43;100466.59;;;1.02;69.56
73842;BME280;62184;52.006;5.924;2022-12-16T05:49:12;100471.00;;;1.01;69.94
73842;BME280;62184;52.006;5.924;2022-12-16T05:51:38;100472.75;;;0.99;69.70
73842;BME280;62184;52.006;5.924;2022-12-16T05:54:05;100477.09;;;0.96;69.84
73842;BME280;62184;52.006;5.924;2022-12-16T05:56:31;100481.47;;;0.92;69.48
73842;BME280;62184;52.006;5.924;2022-12-16T05:58:58;100483.19;;;0.90;69.32
73842;BME280;62184;52.006;5.924;2022-12-16T06:01:24;100481.38;;;0.83;69.10
73842;BME280;62184;52.006;5.924;2022-12-16T06:03:51;100485.72;;;0.79;69.10
73842;BME280;62184;52.006;5.924;2022-12-16T06:06:20;100483.06;;;0.78;68.67
73842;BME280;62184;52.006;5.924;2022-12-16T06:08:46;100485.69;;;0.76;68.64
73842;BME280;62184;52.006;5.924;2022-12-16T06:11:13;100485.59;;;0.66;68.52
73842;BME280;62184;52.006;5.924;2022-12-16T06:13:39;100490.78;;;0.60;68.36
73842;BME280;62184;52.006;5.924;2022-12-16T06:16:06;100492.50;;;0.55;68.42
73842;BME280;62184;52.006;5.924;2022-12-16T06:18:33;100495.06;;;0.51;68.30
73842;BME280;62184;52.006;5.924;2022-12-16T06:20:59;100495.03;;;0.45;68.24
73842;BME280;62184;52.006;5.924;2022-12-16T06:23:28;100494.09;;;0.40;68.13
73842;BME280;62184;52.006;5.924;2022-12-16T06:25:55;100501.94;;;0.37;68.19
73842;BME280;62184;52.006;5.924;2022-12-16T06:28:21;100501.03;;;0.32;67.92
73842;BME280;62184;52.006;5.924;2022-12-16T06:30:48;100498.31;;;0.26;67.88
73842;BME280;62184;52.006;5.924;2022-12-16T06:33:14;100506.16;;;0.22;67.81
73842;BME280;62184;52.006;5.924;2022-12-16T06:35:41;100505.22;;;0.17;67.70
73842;BME280;62184;52.006;5.924;2022-12-16T06:38:07;100508.66;;;0.12;67.68
73842;BME280;62184;52.006;5.924;2022-12-16T06:40:36;100515.63;;;0.07;67.47
73842;BME280;62184;52.006;5.924;2022-12-16T06:43:03;100511.13;;;-0.01;67.85
73842;BME280;62184;52.006;5.924;2022-12-16T06:45:29;100524.16;;;-0.07;68.01
73842;BME280;62184;52.006;5.924;2022-12-16T06:47:56;100525.84;;;-0.12;67.88
73842;BME280;62184;52.006;5.924;2022-12-16T06:50:22;100528.44;;;-0.15;68.30
73842;BME280;62184;52.006;5.924;2022-12-16T06:52:49;100531.88;;;-0.19;68.14
73842;BME280;62184;52.006;5.924;2022-12-16T06:55:15;100535.31;;;-0.24;68.21
73842;BME280;62184;52.006;5.924;2022-12-16T06:57:45;100532.69;;;-0.25;68.40
73842;BME280;62184;52.006;5.924;2022-12-16T07:00:11;100546.59;;;-0.31;68.43
73842;BME280;62184;52.006;5.924;2022-12-16T07:02:38;100550.91;;;-0.36;68.59
73842;BME280;62184;52.006;5.924;2022-12-16T07:05:05;100543.84;;;-0.38;68.84
73842;BME280;62184;52.006;5.924;2022-12-16T07:07:31;100556.06;;;-0.40;68.96
73842;BME280;62184;52.006;5.924;2022-12-16T07:09:58;100552.53;;;-0.44;69.15
73842;BME280;62184;52.006;5.924;2022-12-16T07:12:24;100555.09;;;-0.47;69.32
73842;BME280;62184;52.006;5.924;2022-12-16T07:14:53;100559.44;;;-0.49;69.79
73842;BME280;62184;52.006;5.924;2022-12-16T07:17:20;100563.81;;;-0.51;69.76
73842;BME280;62184;52.006;5.924;2022-12-16T07:19:46;100568.09;;;-0.54;69.99
73842;BME280;62184;52.006;5.924;2022-12-16T07:22:13;100575.09;;;-0.55;69.96
73842;BME280;62184;52.006;5.924;2022-12-16T07:24:39;100570.63;;;-0.60;70.18
73842;BME280;62184;52.006;5.924;2022-12-16T07:27:06;100577.56;;;-0.64;70.49
73842;BME280;62184;52.006;5.924;2022-12-16T07:29:32;100578.41;;;-0.67;70.64
73842;BME280;62184;52.006;5.924;2022-12-16T07:32:01;100577.47;;;-0.70;70.55
73842;BME280;62184;52.006;5.924;2022-12-16T07:34:27;100579.16;;;-0.74;70.72
73842;BME280;62184;52.006;5.924;2022-12-16T07:36:54;100589.56;;;-0.78;70.75
73842;BME280;62184;52.006;5.924;2022-12-16T07:39:20;100591.31;;;-0.79;70.84
73842;BME280;62184;52.006;5.924;2022-12-16T07:41:47;100591.28;;;-0.80;70.80
73842;BME280;62184;52.006;5.924;2022-12-16T07:44:13;100592.13;;;-0.81;70.83
73842;BME280;62184;52.006;5.924;2022-12-16T07:46:40;100594.75;;;-0.81;70.94
73842;BME280;62184;52.006;5.924;2022-12-16T07:49:09;100606.97;;;-0.82;70.89
73842;BME280;62184;52.006;5.924;2022-12-16T07:51:35;100602.59;;;-0.83;70.80
73842;BME280;62184;52.006;5.924;2022-12-16T07:54:02;100604.31;;;-0.85;71.04
73842;BME280;62184;52.006;5.924;2022-12-16T07:56:28;100602.59;;;-0.84;71.14
73842;BME280;62184;52.006;5.924;2022-12-16T07:58:55;100618.31;;;-0.83;71.59
73842;BME280;62184;52.006;5.924;2022-12-16T08:01:22;100627.22;;;-0.73;71.71
73842;BME280;62184;52.006;5.924;2022-12-16T08:03:48;100622.16;;;-0.63;71.82
73842;BME280;62184;52.006;5.924;2022-12-16T08:06:17;100633.78;;;-0.47;72.04
73842;BME280;62184;52.006;5.924;2022-12-16T08:08:43;100634.06;;;-0.30;72.32
73842;BME280;62184;52.006;5.924;2022-12-16T08:11:10;100639.56;;;-0.13;72.39
73842;BME280;62184;52.006;5.924;2022-12-16T08:13:36;100639.78;;;0.02;71.96
73842;BME280;62184;52.006;5.924;2022-12-16T08:16:03;100650.47;;;0.14;71.63
73842;BME280;62184;52.006;5.924;2022-12-16T08:18:30;100657.63;;;0.24;71.42
73842;BME280;62184;52.006;5.924;2022-12-16T08:20:56;100658.53;;;0.28;70.61
73842;BME280;62184;52.006;5.924;2022-12-16T08:23:26;100659.41;;;0.28;70.33
73842;BME280;62184;52.006;5.924;2022-12-16T08:25:52;100663.81;;;0.29;70.40
73842;BME280;62184;52.006;5.924;2022-12-16T08:28:19;100675.22;;;0.31;70.50
73842;BME280;62184;52.006;5.924;2022-12-16T08:30:49;100668.28;;;0.36;70.64
73842;BME280;62184;52.006;5.924;2022-12-16T08:33:15;100678.09;;;0.48;71.18
73842;BME280;62184;52.006;5.924;2022-12-16T08:35:41;100672.16;;;0.64;71.41
73842;BME280;62184;52.006;5.924;2022-12-16T08:38:08;100677.66;;;0.84;71.53
73842;BME280;62184;52.006;5.924;2022-12-16T08:40:37;100689.19;;;0.95;70.87
73842;BME280;62184;52.006;5.924;2022-12-16T08:43:03;100678.72;;;0.98;70.33
73842;BME280;62184;52.006;5.924;2022-12-16T08:45:30;100683.09;;;0.99;69.59
73842;BME280;62184;52.006;5.924;2022-12-16T08:47:56;100685.72;;;0.99;69.48
73842;BME280;62184;52.006;5.924;2022-12-16T08:50:23;100680.47;;;0.99;69.18
73842;BME280;62184;52.006;5.924;2022-12-16T08:52:49;100691.81;;;0.97;69.13
73842;BME280;62184;52.006;5.924;2022-12-16T08:55:16;100693.56;;;0.96;68.72
73842;BME280;62184;52.006;5.924;2022-12-16T08:57:51;100694.41;;;0.94;68.58
73842;BME280;62184;52.006;5.924;2022-12-16T09:00:19;100693.50;;;0.90;68.59
73842;BME280;62184;52.006;5.924;2022-12-16T09:02:45;100701.38;;;0.88;68.50
73842;BME280;62184;52.006;5.924;2022-12-16T09:05:11;100704.81;;;0.84;68.56
73842;BME280;62184;52.006;5.924;2022-12-16T09:07:38;100704.81;;;0.84;68.94
73842;BME280;62184;52.006;5.924;2022-12-16T09:10:05;100707.44;;;0.84;68.89
73842;BME280;62184;52.006;5.924;2022-12-16T09:12:32;100711.88;;;0.87;68.92
73842;BME280;62184;52.006;5.924;2022-12-16T09:15:01;100713.63;;;0.88;68.74
73842;BME280;62184;52.006;5.924;2022-12-16T09:17:27;100715.41;;;0.89;68.71
73842;BME280;62184;52.006;5.924;2022-12-16T09:19:54;100715.44;;;0.90;68.75
73842;BME280;62184;52.006;5.924;2022-12-16T09:22:20;100713.69;;;0.94;68.76
73842;BME280;62184;52.006;5.924;2022-12-16T09:24:46;100718.16;;;0.98;68.72
73842;BME280;62184;52.006;5.924;2022-12-16T09:27:13;100729.53;;;0.99;68.44
73842;BME280;62184;52.006;5.924;2022-12-16T09:29:39;100730.44;;;0.99;68.65
73842;BME280;62184;52.006;5.924;2022-12-16T09:32:08;100728.69;;;1.01;68.56
73842;BME280;62184;52.006;5.924;2022-12-16T09:34:35;100728.69;;;1.03;68.38
73842;BME280;62184;52.006;5.924;2022-12-16T09:37:01;100736.59;;;1.03;68.69
73842;BME280;62184;52.006;5.924;2022-12-16T09:39:28;100738.34;;;1.02;68.55
73842;BME280;62184;52.006;5.924;2022-12-16T09:42:00;100746.22;;;0.99;68.58
73842;BME280;62184;52.006;5.924;2022-12-16T09:44:49;100752.31;;;0.98;68.69
73842;BME280;62184;52.006;5.924;2022-12-16T09:47:31;100770.78;;;1.03;68.77
73842;BME280;62184;52.006;5.924;2022-12-16T09:50:16;100763.84;;;1.09;68.81
73842;BME280;62184;52.006;5.924;2022-12-16T09:52:47;100767.47;;;1.17;68.74
73842;BME280;62184;52.006;5.924;2022-12-16T09:55:24;100769.41;;;1.35;69.04
73842;BME280;62184;52.006;5.924;2022-12-16T09:57:55;100779.25;;;1.50;68.78
73842;BME280;62184;52.006;5.924;2022-12-16T10:00:24;100778.41;;;1.54;68.68
73842;BME280;62184;52.006;5.924;2022-12-16T10:02:56;100782.81;;;1.56;68.53
73842;BME280;62184;52.006;5.924;2022-12-16T10:05:31;100777.56;;;1.56;68.35
73842;BME280;62184;52.006;5.924;2022-12-16T10:08:13;100783.66;;;1.54;68.04
73842;BME280;62184;52.006;5.924;2022-12-16T10:10:55;100787.19;;;1.54;68.27
73842;BME280;62184;52.006;5.924;2022-12-16T10:13:34;100786.31;;;1.55;68.21
73842;BME280;62184;52.006;5.924;2022-12-16T10:16:21;100793.34;;;1.56;68.22
73842;BME280;62184;52.006;5.924;2022-12-16T10:19:11;100789.84;;;1.57;68.31
73842;BME280;62184;52.006;5.924;2022-12-16T10:21:56;100789.88;;;1.59;68.37
73842;BME280;62184;52.006;5.924;2022-12-16T10:24:36;100788.13;;;1.62;68.39
73842;BME280;62184;52.006;5.924;2022-12-16T10:27:15;100794.34;;;1.67;68.47
73842;BME280;62184;52.006;5.924;2022-12-16T10:29:52;100794.44;;;1.75;68.72
73842;BME280;62184;52.006;5.924;2022-12-16T10:32:24;100801.53;;;1.85;68.83
73842;BME280;62184;52.006;5.924;2022-12-16T10:35:02;100790.25;;;1.98;68.93
73842;BME280;62184;52.006;5.924;2022-12-16T10:37:44;100797.38;;;2.09;68.50
73842;BME280;62184;52.006;5.924;2022-12-16T10:40:14;100795.69;;;2.17;68.56
73842;BME280;62184;52.006;5.924;2022-12-16T10:42:49;100801.03;;;2.29;68.55
73842;BME280;62184;52.006;5.924;2022-12-16T10:45:26;100792.34;;;2.43;68.50
73842;BME280;62184;52.006;5.924;2022-12-16T10:47:55;100795.09;;;2.56;68.56
73842;BME280;62184;52.006;5.924;2022-12-16T10:50:24;100791.63;;;2.60;68.19
73842;BME280;62184;52.006;5.924;2022-12-16T10:52:53;100796.06;;;2.67;67.94
73842;BME280;62184;52.006;5.924;2022-12-16T10:55:40;100800.53;;;2.80;67.70
73842;BME280;62184;52.006;5.924;2022-12-16T10:58:19;100792.69;;;2.92;67.47
73842;BME280;62184;52.006;5.924;2022-12-16T11:00:54;100800.66;;;3.06;67.41
73842;BME280;62184;52.006;5.924;2022-12-16T11:03:22;100789.31;;;3.17;67.23
73842;BME280;62184;52.006;5.924;2022-12-16T11:05:58;100797.28;;;3.34;67.26
73842;BME280;62184;52.006;5.924;2022-12-16T11:08:28;100799.06;;;3.44;66.69
73842;BME280;62184;52.006;5.924;2022-12-16T11:10:55;100800.84;;;3.53;66.75
73842;BME280;62184;52.006;5.924;2022-12-16T11:13:24;100796.47;;;3.63;66.59
73842;BME280;62184;52.006;5.924;2022-12-16T11:16:05;100796.50;;;3.72;66.12
73842;BME280;62184;52.006;5.924;2022-12-16T11:18:48;100792.97;;;3.77;65.94
73842;BME280;62184;52.006;5.924;2022-12-16T11:21:19;100793.00;;;3.82;66.02
73842;BME280;62184;52.006;5.924;2022-12-16T11:23:46;100799.19;;;3.88;65.89
73842;BME280;62184;52.006;5.924;2022-12-16T11:26:14;100804.47;;;3.96;65.71
73842;BME280;62184;52.006;5.924;2022-12-16T11:28:42;100801.81;;;4.04;66.14
73842;BME280;62184;52.006;5.924;2022-12-16T11:31:11;100803.63;;;4.09;65.86
73842;BME280;62184;52.006;5.924;2022-12-16T11:33:42;100804.50;;;4.14;65.95
73842;BME280;62184;52.006;5.924;2022-12-16T11:36:13;100799.22;;;4.16;65.67
73842;BME280;62184;52.006;5.924;2022-12-16T11:38:49;100803.59;;;4.14;65.68
73842;BME280;62184;52.006;5.924;2022-12-16T11:41:24;100810.66;;;4.12;66.04
73842;BME280;62184;52.006;5.924;2022-12-16T11:43:54;100806.25;;;4.15;65.91
73842;BME280;62184;52.006;5.924;2022-12-16T11:46:27;100808.00;;;4.15;65.74
73842;BME280;62184;52.006;5.924;2022-12-16T11:48:57;100813.28;;;4.13;65.34
73842;BME280;62184;52.006;5.924;2022-12-16T11:51:31;100819.47;;;4.15;65.67
73842;BME280;62184;52.006;5.924;2022-12-16T11:54:07;100808.88;;;4.11;65.39
73842;BME280;62184;52.006;5.924;2022-12-16T11:56:43;100804.50;;;4.08;65.84
73842;BME280;62184;52.006;5.924;2022-12-16T11:59:18;100808.88;;;4.12;65.97
73842;BME280;62184;52.006;5.924;2022-12-16T12:01:53;100808.00;;;4.19;65.74
73842;BME280;62184;52.006;5.924;2022-12-16T12:04:24;100806.28;;;4.18;65.69
73842;BME280;62184;52.006;5.924;2022-12-16T12:07:06;100805.38;;;4.24;65.66
73842;BME280;62184;52.006;5.924;2022-12-16T12:09:49;100805.38;;;4.28;65.76
73842;BME280;62184;52.006;5.924;2022-12-16T12:12:31;100801.84;;;4.32;65.50
73842;BME280;62184;52.006;5.924;2022-12-16T12:15:12;100801.84;;;4.39;65.55
73842;BME280;62184;52.006;5.924;2022-12-16T12:17:53;100808.91;;;4.47;65.67
73842;BME280;62184;52.006;5.924;2022-12-16T12:20:34;100813.28;;;4.56;65.35
73842;BME280;62184;52.006;5.924;2022-12-16T12:23:20;100806.25;;;4.58;64.66
73842;BME280;62184;52.006;5.924;2022-12-16T12:26:05;100816.81;;;4.53;64.37
73842;BME280;62184;52.006;5.924;2022-12-16T12:28:50;100824.78;;;4.52;64.64
73842;BME280;62184;52.006;5.924;2022-12-16T12:31:32;100822.13;;;4.50;64.62
73842;BME280;62184;52.006;5.924;2022-12-16T12:34:21;100829.16;;;4.47;64.65
73842;BME280;62184;52.006;5.924;2022-12-16T12:37:01;100820.34;;;4.45;64.69
73842;BME280;62184;52.006;5.924;2022-12-16T12:39:42;100826.53;;;4.44;64.85
73842;BME280;62184;52.006;5.924;2022-12-16T12:42:20;100825.63;;;4.45;64.94
73842;BME280;62184;52.006;5.924;2022-12-16T12:45:12;100838.88;;;4.43;64.84
73842;BME280;62184;52.006;5.924;2022-12-16T12:47:56;100833.59;;;4.43;65.22
73842;BME280;62184;52.006;5.924;2022-12-16T12:50:37;100832.69;;;4.47;65.12
73842;BME280;62184;52.006;5.924;2022-12-16T12:53:18;100842.41;;;4.50;64.92
73842;BME280;62184;52.006;5.924;2022-12-16T12:56:03;100845.03;;;4.54;65.03
73842;BME280;62184;52.006;5.924;2022-12-16T12:58:37;100845.03;;;4.53;64.79
73842;BME280;62184;52.006;5.924;2022-12-16T13:01:05;100852.97;;;4.50;64.89
73842;BME280;62184;52.006;5.924;2022-12-16T13:03:38;100846.78;;;4.54;64.94
73842;BME280;62184;52.006;5.924;2022-12-16T13:06:12;100853.84;;;4.55;64.87
73842;BME280;62184;52.006;5.924;2022-12-16T13:08:52;100859.13;;;4.55;64.98
73842;BME280;62184;52.006;5.924;2022-12-16T13:11:23;100860.03;;;4.49;64.92
73842;BME280;62184;52.006;5.924;2022-12-16T13:13:49;100866.19;;;4.47;64.76
73842;BME280;62184;52.006;5.924;2022-12-16T13:16:54;100862.66;;;4.48;64.87
73842;BME280;62184;52.006;5.924;2022-12-16T13:19:43;100866.19;;;4.48;64.94
73842;BME280;62184;52.006;5.924;2022-12-16T13:22:26;100862.66;;;4.48;64.91
73842;BME280;62184;52.006;5.924;2022-12-16T13:24:53;100875.88;;;4.45;64.79